sensor_id;sensor_type;location;lat;lon;timestamp;P1;durP1;ratioP1;P2;durP2;ratioP2
64633;SDS011;51043;52.406;9.690;2022-08-16T00:01:58;14.85;;;9.90;;
64633;SDS011;51043;52.406;9.690;2022-08-16T00:04:26;11.88;;;9.93;;
64633;SDS011;51043;52.406;9.690;2022-08-16T00:06:54;15.80;;;9.90;;
64633;SDS011;51043;52.406;9.690;2022-08-16T00:09:24;10.00;;;8.73;;
64633;SDS011;51043;52.406;9.690;2022-08-16T00:11:51;11.68;;;9.77;;
64633;SDS011;51043;52.406;9.690;2022-08-16T00:14:27;12.38;;;9.63;;
64633;SDS011;51043;52.406;9.690;2022-08-16T00:16:56;15.20;;;9.48;;
64633;SDS011;51043;52.406;9.690;2022-08-16T00:19:26;10.82;;;9.73;;
64633;SDS011;51043;52.406;9.690;2022-08-16T00:21:57;12.20;;;9.80;;
64633;SDS011;51043;52.406;9.690;2022-08-16T00:24:27;16.77;;;11.25;;
64633;SDS011;51043;52.406;9.690;2022-08-16T00:26:54;17.42;;;10.38;;
64633;SDS011;51043;52.406;9.690;2022-08-16T00:29:22;13.38;;;11.25;;
64633;SDS011;51043;52.406;9.690;2022-08-16T00:31:50;13.93;;;10.55;;
64633;SDS011;51043;52.406;9.690;2022-08-16T00:34:18;14.77;;;10.18;;
64633;SDS011;51043;52.406;9.690;2022-08-16T00:36:46;14.13;;;10.30;;
64633;SDS011;51043;52.406;9.690;2022-08-16T00:39:15;18.65;;;10.02;;
64633;SDS011;51043;52.406;9.690;2022-08-16T00:41:44;18.75;;;10.40;;
64633;SDS011;51043;52.406;9.690;2022-08-16T00:44:13;13.25;;;10.15;;
64633;SDS011;51043;52.406;9.690;2022-08-16T00:46:53;13.07;;;9.82;;
64633;SDS011;51043;52.406;9.690;2022-08-16T00:49:45;13.45;;;10.00;;
64633;SDS011;51043;52.406;9.690;2022-08-16T00:52:12;15.10;;;10.57;;
64633;SDS011;51043;52.406;9.690;2022-08-16T00:54:39;13.55;;;10.80;;
64633;SDS011;51043;52.406;9.690;2022-08-16T00:57:06;13.55;;;10.63;;
64633;SDS011;51043;52.406;9.690;2022-08-16T00:59:34;14.52;;;9.75;;
64633;SDS011;51043;52.406;9.690;2022-08-16T01:02:05;16.27;;;10.73;;
64633;SDS011;51043;52.406;9.690;2022-08-16T01:04:34;14.18;;;10.63;;
64633;SDS011;51043;52.406;9.690;2022-08-16T01:07:03;14.32;;;10.98;;
64633;SDS011;51043;52.406;9.690;2022-08-16T01:09:33;16.77;;;10.45;;
64633;SDS011;51043;52.406;9.690;2022-08-16T01:12:04;21.42;;;11.00;;
64633;SDS011;51043;52.406;9.690;2022-08-16T01:14:36;15.50;;;10.77;;
64633;SDS011;51043;52.406;9.690;2022-08-16T01:17:07;14.55;;;10.43;;
64633;SDS011;51043;52.406;9.690;2022-08-16T01:19:40;14.98;;;11.10;;
64633;SDS011;51043;52.406;9.690;2022-08-16T01:25:22;11.70;;;10.38;;
64633;SDS011;51043;52.406;9.690;2022-08-16T01:27:53;18.48;;;10.73;;
64633;SDS011;51043;52.406;9.690;2022-08-16T01:30:34;16.33;;;10.48;;
64633;SDS011;51043;52.406;9.690;2022-08-16T01:33:05;20.45;;;11.02;;
64633;SDS011;51043;52.406;9.690;2022-08-16T01:35:43;17.73;;;11.95;;
64633;SDS011;51043;52.406;9.690;2022-08-16T01:41:02;15.32;;;10.55;;
64633;SDS011;51043;52.406;9.690;2022-08-16T01:43:37;15.65;;;10.73;;
64633;SDS011;51043;52.406;9.690;2022-08-16T01:46:07;15.32;;;10.05;;
64633;SDS011;51043;52.406;9.690;2022-08-16T01:48:56;12.00;;;9.38;;
64633;SDS011;51043;52.406;9.690;2022-08-16T01:51:28;14.68;;;10.40;;
64633;SDS011;51043;52.406;9.690;2022-08-16T01:53:56;15.48;;;9.32;;
64633;SDS011;51043;52.406;9.690;2022-08-16T01:56:26;14.98;;;10.02;;
64633;SDS011;51043;52.406;9.690;2022-08-16T01:58:58;17.40;;;9.73;;
64633;SDS011;51043;52.406;9.690;2022-08-16T02:01:27;11.20;;;9.65;;
64633;SDS011;51043;52.406;9.690;2022-08-16T02:03:58;13.93;;;10.05;;
64633;SDS011;51043;52.406;9.690;2022-08-16T02:06:25;14.48;;;11.07;;
64633;SDS011;51043;52.406;9.690;2022-08-16T02:08:53;19.02;;;9.93;;
64633;SDS011;51043;52.406;9.690;2022-08-16T02:11:21;14.15;;;9.77;;
64633;SDS011;51043;52.406;9.690;2022-08-16T02:13:49;13.27;;;9.88;;
64633;SDS011;51043;52.406;9.690;2022-08-16T02:16:17;17.33;;;10.15;;
64633;SDS011;51043;52.406;9.690;2022-08-16T02:18:46;12.88;;;9.75;;
64633;SDS011;51043;52.406;9.690;2022-08-16T02:21:13;13.80;;;10.13;;
64633;SDS011;51043;52.406;9.690;2022-08-16T02:23:41;12.00;;;10.15;;
64633;SDS011;51043;52.406;9.690;2022-08-16T02:26:09;13.45;;;10.73;;
64633;SDS011;51043;52.406;9.690;2022-08-16T02:28:36;15.90;;;10.15;;
64633;SDS011;51043;52.406;9.690;2022-08-16T02:31:05;18.88;;;11.05;;
64633;SDS011;51043;52.406;9.690;2022-08-16T02:33:36;17.05;;;11.20;;
64633;SDS011;51043;52.406;9.690;2022-08-16T02:36:04;14.80;;;10.60;;
64633;SDS011;51043;52.406;9.690;2022-08-16T02:38:32;13.02;;;10.80;;
64633;SDS011;51043;52.406;9.690;2022-08-16T02:41:00;19.63;;;11.75;;
64633;SDS011;51043;52.406;9.690;2022-08-16T02:43:29;16.25;;;11.00;;
64633;SDS011;51043;52.406;9.690;2022-08-16T02:45:59;13.35;;;10.65;;
64633;SDS011;51043;52.406;9.690;2022-08-16T02:48:27;16.98;;;11.00;;
64633;SDS011;51043;52.406;9.690;2022-08-16T02:50:59;18.92;;;12.18;;
64633;SDS011;51043;52.406;9.690;2022-08-16T02:53:28;28.25;;;10.88;;
64633;SDS011;51043;52.406;9.690;2022-08-16T02:55:56;18.63;;;11.80;;
64633;SDS011;51043;52.406;9.690;2022-08-16T02:58:25;15.65;;;11.05;;
64633;SDS011;51043;52.406;9.690;2022-08-16T03:00:53;16.90;;;10.70;;
64633;SDS011;51043;52.406;9.690;2022-08-16T03:03:21;19.02;;;11.43;;
64633;SDS011;51043;52.406;9.690;2022-08-16T03:05:48;16.15;;;12.20;;
64633;SDS011;51043;52.406;9.690;2022-08-16T03:08:17;18.42;;;12.13;;
64633;SDS011;51043;52.406;9.690;2022-08-16T03:10:44;19.17;;;12.27;;
64633;SDS011;51043;52.406;9.690;2022-08-16T03:13:11;16.58;;;11.75;;
64633;SDS011;51043;52.406;9.690;2022-08-16T03:15:38;18.27;;;11.95;;
64633;SDS011;51043;52.406;9.690;2022-08-16T03:18:05;16.55;;;11.65;;
64633;SDS011;51043;52.406;9.690;2022-08-16T03:20:32;20.42;;;11.88;;
64633;SDS011;51043;52.406;9.690;2022-08-16T03:23:02;14.57;;;12.23;;
64633;SDS011;51043;52.406;9.690;2022-08-16T03:25:31;17.25;;;12.20;;
64633;SDS011;51043;52.406;9.690;2022-08-16T03:28:00;18.60;;;11.73;;
64633;SDS011;51043;52.406;9.690;2022-08-16T03:30:32;13.50;;;12.07;;
64633;SDS011;51043;52.406;9.690;2022-08-16T03:33:03;21.10;;;12.52;;
64633;SDS011;51043;52.406;9.690;2022-08-16T03:35:36;20.65;;;12.23;;
64633;SDS011;51043;52.406;9.690;2022-08-16T03:38:14;15.02;;;11.48;;
64633;SDS011;51043;52.406;9.690;2022-08-16T03:40:45;15.88;;;12.35;;
64633;SDS011;51043;52.406;9.690;2022-08-16T03:43:12;19.42;;;12.38;;
64633;SDS011;51043;52.406;9.690;2022-08-16T03:45:39;14.88;;;12.25;;
64633;SDS011;51043;52.406;9.690;2022-08-16T03:48:07;15.73;;;11.63;;
64633;SDS011;51043;52.406;9.690;2022-08-16T03:50:36;14.20;;;11.40;;
64633;SDS011;51043;52.406;9.690;2022-08-16T03:53:04;17.70;;;12.52;;
64633;SDS011;51043;52.406;9.690;2022-08-16T03:55:34;19.35;;;11.68;;
64633;SDS011;51043;52.406;9.690;2022-08-16T03:58:01;17.27;;;12.18;;
64633;SDS011;51043;52.406;9.690;2022-08-16T04:00:29;17.73;;;12.05;;
64633;SDS011;51043;52.406;9.690;2022-08-16T04:03:05;15.55;;;11.95;;
64633;SDS011;51043;52.406;9.690;2022-08-16T04:05:36;17.63;;;12.18;;
64633;SDS011;51043;52.406;9.690;2022-08-16T04:08:06;17.83;;;12.32;;
64633;SDS011;51043;52.406;9.690;2022-08-16T04:10:39;17.70;;;11.98;;
64633;SDS011;51043;52.406;9.690;2022-08-16T04:13:06;13.88;;;11.18;;
64633;SDS011;51043;52.406;9.690;2022-08-16T04:15:40;16.35;;;10.70;;
64633;SDS011;51043;52.406;9.690;2022-08-16T04:18:17;17.75;;;11.65;;
64633;SDS011;51043;52.406;9.690;2022-08-16T04:20:45;16.30;;;11.85;;
64633;SDS011;51043;52.406;9.690;2022-08-16T04:23:13;17.75;;;11.88;;
64633;SDS011;51043;52.406;9.690;2022-08-16T04:25:41;17.52;;;11.68;;
64633;SDS011;51043;52.406;9.690;2022-08-16T04:28:09;14.27;;;11.02;;
64633;SDS011;51043;52.406;9.690;2022-08-16T04:30:42;16.63;;;11.27;;
64633;SDS011;51043;52.406;9.690;2022-08-16T04:33:09;15.10;;;10.60;;
64633;SDS011;51043;52.406;9.690;2022-08-16T04:35:39;18.42;;;11.45;;
64633;SDS011;51043;52.406;9.690;2022-08-16T04:38:11;14.82;;;10.65;;
64633;SDS011;51043;52.406;9.690;2022-08-16T04:40:44;14.60;;;10.00;;
64633;SDS011;51043;52.406;9.690;2022-08-16T04:43:13;18.02;;;10.70;;
64633;SDS011;51043;52.406;9.690;2022-08-16T04:45:41;17.40;;;10.10;;
64633;SDS011;51043;52.406;9.690;2022-08-16T04:48:13;15.27;;;10.00;;
64633;SDS011;51043;52.406;9.690;2022-08-16T04:50:48;10.80;;;8.65;;
64633;SDS011;51043;52.406;9.690;2022-08-16T04:53:18;17.08;;;10.15;;
64633;SDS011;51043;52.406;9.690;2022-08-16T04:55:48;10.98;;;8.45;;
64633;SDS011;51043;52.406;9.690;2022-08-16T04:58:15;17.70;;;9.77;;
64633;SDS011;51043;52.406;9.690;2022-08-16T05:00:42;14.27;;;9.13;;
64633;SDS011;51043;52.406;9.690;2022-08-16T05:03:17;13.20;;;9.63;;
64633;SDS011;51043;52.406;9.690;2022-08-16T05:05:45;12.35;;;8.85;;
64633;SDS011;51043;52.406;9.690;2022-08-16T05:08:19;13.98;;;9.15;;
64633;SDS011;51043;52.406;9.690;2022-08-16T05:10:53;12.90;;;7.93;;
64633;SDS011;51043;52.406;9.690;2022-08-16T05:13:20;12.30;;;8.05;;
64633;SDS011;51043;52.406;9.690;2022-08-16T05:15:49;13.02;;;7.90;;
64633;SDS011;51043;52.406;9.690;2022-08-16T05:18:19;11.75;;;8.50;;
64633;SDS011;51043;52.406;9.690;2022-08-16T05:20:53;11.05;;;8.27;;
64633;SDS011;51043;52.406;9.690;2022-08-16T05:23:20;14.30;;;8.45;;
64633;SDS011;51043;52.406;9.690;2022-08-16T05:25:49;12.38;;;8.20;;
64633;SDS011;51043;52.406;9.690;2022-08-16T05:28:20;13.27;;;8.05;;
64633;SDS011;51043;52.406;9.690;2022-08-16T05:30:53;11.63;;;7.68;;
64633;SDS011;51043;52.406;9.690;2022-08-16T05:33:24;14.45;;;8.18;;
64633;SDS011;51043;52.406;9.690;2022-08-16T05:35:55;9.82;;;7.28;;
64633;SDS011;51043;52.406;9.690;2022-08-16T05:38:28;14.35;;;7.55;;
64633;SDS011;51043;52.406;9.690;2022-08-16T05:40:59;12.73;;;7.35;;
64633;SDS011;51043;52.406;9.690;2022-08-16T05:43:36;7.85;;;7.05;;
64633;SDS011;51043;52.406;9.690;2022-08-16T05:46:03;9.57;;;7.25;;
64633;SDS011;51043;52.406;9.690;2022-08-16T05:48:34;13.27;;;7.13;;
64633;SDS011;51043;52.406;9.690;2022-08-16T05:51:08;15.35;;;6.68;;
64633;SDS011;51043;52.406;9.690;2022-08-16T05:53:35;13.18;;;6.80;;
64633;SDS011;51043;52.406;9.690;2022-08-16T05:56:07;14.02;;;6.13;;
64633;SDS011;51043;52.406;9.690;2022-08-16T05:58:37;7.85;;;6.00;;
64633;SDS011;51043;52.406;9.690;2022-08-16T06:01:07;13.27;;;6.43;;
64633;SDS011;51043;52.406;9.690;2022-08-16T06:03:36;17.30;;;6.32;;
64633;SDS011;51043;52.406;9.690;2022-08-16T06:06:17;12.55;;;5.97;;
64633;SDS011;51043;52.406;9.690;2022-08-16T06:08:44;12.77;;;5.90;;
64633;SDS011;51043;52.406;9.690;2022-08-16T06:11:13;9.38;;;5.43;;
64633;SDS011;51043;52.406;9.690;2022-08-16T06:13:45;16.42;;;5.88;;
64633;SDS011;51043;52.406;9.690;2022-08-16T06:16:17;16.02;;;5.60;;
64633;SDS011;51043;52.406;9.690;2022-08-16T06:18:49;9.40;;;5.30;;
64633;SDS011;51043;52.406;9.690;2022-08-16T06:21:17;11.75;;;5.70;;
64633;SDS011;51043;52.406;9.690;2022-08-16T06:23:45;8.70;;;4.78;;
64633;SDS011;51043;52.406;9.690;2022-08-16T06:26:15;9.05;;;5.05;;
64633;SDS011;51043;52.406;9.690;2022-08-16T06:28:43;6.47;;;3.90;;
64633;SDS011;51043;52.406;9.690;2022-08-16T06:31:15;6.07;;;3.65;;
64633;SDS011;51043;52.406;9.690;2022-08-16T06:33:45;10.52;;;3.65;;
64633;SDS011;51043;52.406;9.690;2022-08-16T06:36:15;5.75;;;3.95;;
64633;SDS011;51043;52.406;9.690;2022-08-16T06:38:52;10.52;;;3.90;;
64633;SDS011;51043;52.406;9.690;2022-08-16T06:41:24;8.70;;;3.92;;
64633;SDS011;51043;52.406;9.690;2022-08-16T06:43:53;10.40;;;4.30;;
64633;SDS011;51043;52.406;9.690;2022-08-16T06:46:33;8.30;;;4.40;;
64633;SDS011;51043;52.406;9.690;2022-08-16T06:49:09;7.63;;;3.70;;
64633;SDS011;51043;52.406;9.690;2022-08-16T06:51:38;11.55;;;3.97;;
64633;SDS011;51043;52.406;9.690;2022-08-16T06:54:06;11.90;;;4.00;;
64633;SDS011;51043;52.406;9.690;2022-08-16T06:56:34;8.32;;;4.13;;
64633;SDS011;51043;52.406;9.690;2022-08-16T06:59:07;6.60;;;3.50;;
64633;SDS011;51043;52.406;9.690;2022-08-16T07:01:41;9.40;;;3.83;;
64633;SDS011;51043;52.406;9.690;2022-08-16T07:04:10;13.00;;;3.58;;
64633;SDS011;51043;52.406;9.690;2022-08-16T07:06:41;8.85;;;3.78;;
64633;SDS011;51043;52.406;9.690;2022-08-16T07:09:11;7.65;;;3.08;;
64633;SDS011;51043;52.406;9.690;2022-08-16T07:11:44;8.23;;;3.10;;
64633;SDS011;51043;52.406;9.690;2022-08-16T07:14:12;7.88;;;3.38;;
64633;SDS011;51043;52.406;9.690;2022-08-16T07:16:48;9.73;;;3.35;;
64633;SDS011;51043;52.406;9.690;2022-08-16T07:19:15;6.30;;;2.97;;
64633;SDS011;51043;52.406;9.690;2022-08-16T07:21:43;7.85;;;3.17;;
64633;SDS011;51043;52.406;9.690;2022-08-16T07:24:10;7.15;;;3.05;;
64633;SDS011;51043;52.406;9.690;2022-08-16T07:26:39;7.47;;;2.95;;
64633;SDS011;51043;52.406;9.690;2022-08-16T07:29:07;7.75;;;2.80;;
64633;SDS011;51043;52.406;9.690;2022-08-16T07:31:34;4.60;;;2.53;;
64633;SDS011;51043;52.406;9.690;2022-08-16T07:34:01;6.97;;;2.72;;
64633;SDS011;51043;52.406;9.690;2022-08-16T07:36:32;7.53;;;2.95;;
64633;SDS011;51043;52.406;9.690;2022-08-16T07:38:59;7.55;;;3.50;;
64633;SDS011;51043;52.406;9.690;2022-08-16T07:41:32;5.88;;;3.45;;
64633;SDS011;51043;52.406;9.690;2022-08-16T07:44:02;5.50;;;3.08;;
64633;SDS011;51043;52.406;9.690;2022-08-16T07:46:32;10.70;;;3.17;;
64633;SDS011;51043;52.406;9.690;2022-08-16T07:49:06;6.47;;;2.90;;
64633;SDS011;51043;52.406;9.690;2022-08-16T07:51:35;9.10;;;2.78;;
64633;SDS011;51043;52.406;9.690;2022-08-16T07:54:03;8.32;;;3.40;;
64633;SDS011;51043;52.406;9.690;2022-08-16T07:56:41;8.65;;;3.00;;
64633;SDS011;51043;52.406;9.690;2022-08-16T07:59:09;11.43;;;2.40;;
64633;SDS011;51043;52.406;9.690;2022-08-16T08:01:35;4.43;;;2.53;;
64633;SDS011;51043;52.406;9.690;2022-08-16T08:04:04;7.07;;;3.20;;
64633;SDS011;51043;52.406;9.690;2022-08-16T08:06:36;9.57;;;2.95;;
64633;SDS011;51043;52.406;9.690;2022-08-16T08:09:10;6.65;;;2.70;;
64633;SDS011;51043;52.406;9.690;2022-08-16T08:11:37;5.93;;;2.60;;
64633;SDS011;51043;52.406;9.690;2022-08-16T08:14:07;6.65;;;2.35;;
64633;SDS011;51043;52.406;9.690;2022-08-16T08:16:38;6.38;;;2.50;;
64633;SDS011;51043;52.406;9.690;2022-08-16T08:19:06;7.55;;;2.78;;
64633;SDS011;51043;52.406;9.690;2022-08-16T08:21:41;3.70;;;2.53;;
64633;SDS011;51043;52.406;9.690;2022-08-16T08:24:10;6.35;;;2.60;;
64633;SDS011;51043;52.406;9.690;2022-08-16T08:26:39;6.05;;;2.60;;
64633;SDS011;51043;52.406;9.690;2022-08-16T08:29:07;6.35;;;2.40;;
64633;SDS011;51043;52.406;9.690;2022-08-16T08:31:37;5.30;;;2.40;;
64633;SDS011;51043;52.406;9.690;2022-08-16T08:34:09;4.82;;;2.60;;
64633;SDS011;51043;52.406;9.690;2022-08-16T08:36:37;4.20;;;2.22;;
64633;SDS011;51043;52.406;9.690;2022-08-16T08:39:15;3.90;;;2.17;;
64633;SDS011;51043;52.406;9.690;2022-08-16T08:41:42;4.25;;;2.70;;
64633;SDS011;51043;52.406;9.690;2022-08-16T08:44:10;7.28;;;2.85;;
64633;SDS011;51043;52.406;9.690;2022-08-16T08:46:38;9.05;;;2.92;;
64633;SDS011;51043;52.406;9.690;2022-08-16T08:49:05;5.30;;;2.63;;
64633;SDS011;51043;52.406;9.690;2022-08-16T08:51:40;5.22;;;2.60;;
64633;SDS011;51043;52.406;9.690;2022-08-16T08:54:10;5.05;;;2.42;;
64633;SDS011;51043;52.406;9.690;2022-08-16T08:56:41;6.55;;;2.50;;
64633;SDS011;51043;52.406;9.690;2022-08-16T08:59:20;13.27;;;2.72;;
64633;SDS011;51043;52.406;9.690;2022-08-16T09:01:48;5.32;;;2.45;;
64633;SDS011;51043;52.406;9.690;2022-08-16T09:04:16;3.65;;;2.58;;
64633;SDS011;51043;52.406;9.690;2022-08-16T09:06:45;9.27;;;2.17;;
64633;SDS011;51043;52.406;9.690;2022-08-16T09:09:14;7.05;;;2.70;;
64633;SDS011;51043;52.406;9.690;2022-08-16T09:11:41;5.78;;;2.60;;
64633;SDS011;51043;52.406;9.690;2022-08-16T09:14:10;8.55;;;2.50;;
64633;SDS011;51043;52.406;9.690;2022-08-16T09:16:43;5.22;;;2.30;;
64633;SDS011;51043;52.406;9.690;2022-08-16T09:19:20;3.88;;;2.47;;
64633;SDS011;51043;52.406;9.690;2022-08-16T09:21:48;4.80;;;2.60;;
64633;SDS011;51043;52.406;9.690;2022-08-16T09:24:16;4.25;;;2.50;;
64633;SDS011;51043;52.406;9.690;2022-08-16T09:26:45;5.63;;;2.50;;
64633;SDS011;51043;52.406;9.690;2022-08-16T09:29:12;3.90;;;2.10;;
64633;SDS011;51043;52.406;9.690;2022-08-16T09:31:44;4.70;;;2.67;;
64633;SDS011;51043;52.406;9.690;2022-08-16T09:34:12;4.95;;;2.25;;
64633;SDS011;51043;52.406;9.690;2022-08-16T09:36:42;6.15;;;2.65;;
64633;SDS011;51043;52.406;9.690;2022-08-16T09:39:15;4.53;;;2.28;;
64633;SDS011;51043;52.406;9.690;2022-08-16T09:41:44;4.00;;;2.28;;
64633;SDS011;51043;52.406;9.690;2022-08-16T09:44:13;4.53;;;2.50;;
64633;SDS011;51043;52.406;9.690;2022-08-16T09:46:45;8.93;;;2.70;;
64633;SDS011;51043;52.406;9.690;2022-08-16T09:49:16;5.82;;;2.85;;
64633;SDS011;51043;52.406;9.690;2022-08-16T09:51:45;5.03;;;2.30;;
64633;SDS011;51043;52.406;9.690;2022-08-16T09:54:13;4.18;;;2.17;;
64633;SDS011;51043;52.406;9.690;2022-08-16T09:56:40;3.58;;;2.33;;
64633;SDS011;51043;52.406;9.690;2022-08-16T09:59:08;3.72;;;2.05;;
64633;SDS011;51043;52.406;9.690;2022-08-16T10:01:37;5.50;;;2.38;;
64633;SDS011;51043;52.406;9.690;2022-08-16T10:04:07;9.57;;;2.30;;
64633;SDS011;51043;52.406;9.690;2022-08-16T10:06:36;12.85;;;2.35;;
64633;SDS011;51043;52.406;9.690;2022-08-16T10:09:04;4.07;;;2.47;;
64633;SDS011;51043;52.406;9.690;2022-08-16T10:11:35;4.20;;;2.35;;
64633;SDS011;51043;52.406;9.690;2022-08-16T10:14:22;6.88;;;2.15;;
64633;SDS011;51043;52.406;9.690;2022-08-16T10:16:50;2.72;;;2.00;;
64633;SDS011;51043;52.406;9.690;2022-08-16T10:19:18;6.03;;;2.10;;
64633;SDS011;51043;52.406;9.690;2022-08-16T10:21:45;4.15;;;2.15;;
64633;SDS011;51043;52.406;9.690;2022-08-16T10:24:18;3.25;;;2.00;;
64633;SDS011;51043;52.406;9.690;2022-08-16T10:26:45;8.73;;;2.10;;
64633;SDS011;51043;52.406;9.690;2022-08-16T10:29:12;4.95;;;2.35;;
64633;SDS011;51043;52.406;9.690;2022-08-16T10:31:42;5.72;;;2.25;;
64633;SDS011;51043;52.406;9.690;2022-08-16T10:34:09;3.42;;;2.00;;
64633;SDS011;51043;52.406;9.690;2022-08-16T10:36:37;3.03;;;2.20;;
64633;SDS011;51043;52.406;9.690;2022-08-16T10:39:05;4.22;;;1.90;;
64633;SDS011;51043;52.406;9.690;2022-08-16T10:41:32;5.80;;;2.22;;
64633;SDS011;51043;52.406;9.690;2022-08-16T10:44:10;4.75;;;2.22;;
64633;SDS011;51043;52.406;9.690;2022-08-16T10:46:37;3.53;;;2.13;;
64633;SDS011;51043;52.406;9.690;2022-08-16T10:49:05;4.78;;;2.30;;
64633;SDS011;51043;52.406;9.690;2022-08-16T10:51:32;9.80;;;2.47;;
64633;SDS011;51043;52.406;9.690;2022-08-16T10:53:59;6.10;;;2.38;;
64633;SDS011;51043;52.406;9.690;2022-08-16T10:56:27;3.47;;;2.10;;
64633;SDS011;51043;52.406;9.690;2022-08-16T10:58:54;4.32;;;2.20;;
64633;SDS011;51043;52.406;9.690;2022-08-16T11:01:45;7.45;;;2.10;;
64633;SDS011;51043;52.406;9.690;2022-08-16T11:04:32;5.05;;;2.20;;
64633;SDS011;51043;52.406;9.690;2022-08-16T11:07:19;5.03;;;2.20;;
64633;SDS011;51043;52.406;9.690;2022-08-16T11:10:07;5.32;;;2.20;;
64633;SDS011;51043;52.406;9.690;2022-08-16T11:12:55;3.90;;;2.20;;
64633;SDS011;51043;52.406;9.690;2022-08-16T11:15:43;4.97;;;2.47;;
64633;SDS011;51043;52.406;9.690;2022-08-16T11:18:15;5.43;;;2.50;;
64633;SDS011;51043;52.406;9.690;2022-08-16T11:20:50;6.55;;;2.40;;
64633;SDS011;51043;52.406;9.690;2022-08-16T11:23:19;2.78;;;2.08;;
64633;SDS011;51043;52.406;9.690;2022-08-16T11:25:46;3.33;;;1.88;;
64633;SDS011;51043;52.406;9.690;2022-08-16T11:28:33;4.03;;;2.20;;
64633;SDS011;51043;52.406;9.690;2022-08-16T11:31:01;6.93;;;2.00;;
64633;SDS011;51043;52.406;9.690;2022-08-16T11:33:28;3.92;;;2.33;;
64633;SDS011;51043;52.406;9.690;2022-08-16T11:36:16;5.63;;;2.50;;
64633;SDS011;51043;52.406;9.690;2022-08-16T11:38:47;5.47;;;2.30;;
64633;SDS011;51043;52.406;9.690;2022-08-16T11:41:14;2.92;;;2.22;;
64633;SDS011;51043;52.406;9.690;2022-08-16T11:43:45;3.47;;;2.35;;
64633;SDS011;51043;52.406;9.690;2022-08-16T11:46:13;3.35;;;2.20;;
64633;SDS011;51043;52.406;9.690;2022-08-16T11:48:43;5.32;;;2.20;;
64633;SDS011;51043;52.406;9.690;2022-08-16T11:51:14;8.38;;;2.50;;
64633;SDS011;51043;52.406;9.690;2022-08-16T11:53:41;6.35;;;2.88;;
64633;SDS011;51043;52.406;9.690;2022-08-16T11:56:09;4.82;;;2.47;;
64633;SDS011;51043;52.406;9.690;2022-08-16T11:58:36;4.57;;;2.78;;
64633;SDS011;51043;52.406;9.690;2022-08-16T12:01:11;8.63;;;2.58;;
64633;SDS011;51043;52.406;9.690;2022-08-16T12:03:42;4.00;;;2.35;;
64633;SDS011;51043;52.406;9.690;2022-08-16T12:06:11;9.38;;;2.67;;
64633;SDS011;51043;52.406;9.690;2022-08-16T12:08:45;4.05;;;2.40;;
64633;SDS011;51043;52.406;9.690;2022-08-16T12:11:13;5.78;;;2.40;;
64633;SDS011;51043;52.406;9.690;2022-08-16T12:13:41;4.18;;;2.40;;
64633;SDS011;51043;52.406;9.690;2022-08-16T12:16:10;3.13;;;2.10;;
64633;SDS011;51043;52.406;9.690;2022-08-16T12:18:37;4.35;;;2.08;;
64633;SDS011;51043;52.406;9.690;2022-08-16T12:21:06;2.78;;;2.05;;
64633;SDS011;51043;52.406;9.690;2022-08-16T12:23:36;2.97;;;2.08;;
64633;SDS011;51043;52.406;9.690;2022-08-16T12:26:05;5.85;;;2.35;;
64633;SDS011;51043;52.406;9.690;2022-08-16T12:28:33;5.07;;;2.30;;
64633;SDS011;51043;52.406;9.690;2022-08-16T12:31:02;3.00;;;2.03;;
64633;SDS011;51043;52.406;9.690;2022-08-16T12:33:33;3.30;;;2.38;;
64633;SDS011;51043;52.406;9.690;2022-08-16T12:36:11;8.40;;;2.15;;
64633;SDS011;51043;52.406;9.690;2022-08-16T12:38:40;2.97;;;2.13;;
64633;SDS011;51043;52.406;9.690;2022-08-16T12:41:07;6.63;;;2.00;;
64633;SDS011;51043;52.406;9.690;2022-08-16T12:43:41;3.45;;;1.98;;
64633;SDS011;51043;52.406;9.690;2022-08-16T12:46:54;3.05;;;2.20;;
64633;SDS011;51043;52.406;9.690;2022-08-16T12:49:42;10.07;;;2.45;;
64633;SDS011;51043;52.406;9.690;2022-08-16T12:52:09;6.28;;;2.40;;
64633;SDS011;51043;52.406;9.690;2022-08-16T12:54:37;5.22;;;2.28;;
64633;SDS011;51043;52.406;9.690;2022-08-16T12:57:06;3.55;;;2.10;;
64633;SDS011;51043;52.406;9.690;2022-08-16T12:59:34;9.68;;;2.58;;
64633;SDS011;51043;52.406;9.690;2022-08-16T13:02:03;5.15;;;2.30;;
64633;SDS011;51043;52.406;9.690;2022-08-16T13:04:31;5.25;;;2.40;;
64633;SDS011;51043;52.406;9.690;2022-08-16T13:06:59;7.25;;;2.42;;
64633;SDS011;51043;52.406;9.690;2022-08-16T13:09:29;8.32;;;2.25;;
64633;SDS011;51043;52.406;9.690;2022-08-16T13:12:00;7.72;;;2.33;;
64633;SDS011;51043;52.406;9.690;2022-08-16T13:14:39;8.80;;;2.33;;
64633;SDS011;51043;52.406;9.690;2022-08-16T13:17:11;5.78;;;2.13;;
64633;SDS011;51043;52.406;9.690;2022-08-16T13:19:42;5.95;;;2.35;;
64633;SDS011;51043;52.406;9.690;2022-08-16T13:22:30;5.80;;;2.30;;
64633;SDS011;51043;52.406;9.690;2022-08-16T13:24:57;8.93;;;2.40;;
64633;SDS011;51043;52.406;9.690;2022-08-16T13:27:24;7.40;;;2.20;;
64633;SDS011;51043;52.406;9.690;2022-08-16T13:29:51;5.20;;;2.20;;
64633;SDS011;51043;52.406;9.690;2022-08-16T13:32:18;6.72;;;2.25;;
64633;SDS011;51043;52.406;9.690;2022-08-16T13:34:53;6.43;;;2.22;;
64633;SDS011;51043;52.406;9.690;2022-08-16T13:37:21;11.35;;;2.42;;
64633;SDS011;51043;52.406;9.690;2022-08-16T13:40:06;4.20;;;2.22;;
64633;SDS011;51043;52.406;9.690;2022-08-16T13:42:33;6.45;;;2.30;;
64633;SDS011;51043;52.406;9.690;2022-08-16T13:45:01;5.10;;;2.45;;
64633;SDS011;51043;52.406;9.690;2022-08-16T13:47:35;9.60;;;2.40;;
64633;SDS011;51043;52.406;9.690;2022-08-16T13:50:02;17.05;;;2.85;;
64633;SDS011;51043;52.406;9.690;2022-08-16T13:52:30;10.55;;;2.78;;
64633;SDS011;51043;52.406;9.690;2022-08-16T13:55:01;6.05;;;2.40;;
64633;SDS011;51043;52.406;9.690;2022-08-16T13:57:28;8.25;;;2.35;;
64633;SDS011;51043;52.406;9.690;2022-08-16T13:59:55;9.45;;;2.42;;
64633;SDS011;51043;52.406;9.690;2022-08-16T14:02:23;4.43;;;2.53;;
64633;SDS011;51043;52.406;9.690;2022-08-16T14:04:50;10.63;;;2.60;;
64633;SDS011;51043;52.406;9.690;2022-08-16T14:07:17;7.60;;;2.72;;
64633;SDS011;51043;52.406;9.690;2022-08-16T14:09:44;9.57;;;2.50;;
64633;SDS011;51043;52.406;9.690;2022-08-16T14:12:15;10.00;;;2.50;;
64633;SDS011;51043;52.406;9.690;2022-08-16T14:14:49;5.70;;;2.30;;
64633;SDS011;51043;52.406;9.690;2022-08-16T14:17:18;9.32;;;2.75;;
64633;SDS011;51043;52.406;9.690;2022-08-16T14:19:46;4.85;;;2.60;;
64633;SDS011;51043;52.406;9.690;2022-08-16T14:22:19;6.05;;;2.80;;
64633;SDS011;51043;52.406;9.690;2022-08-16T14:24:50;5.22;;;2.65;;
64633;SDS011;51043;52.406;9.690;2022-08-16T14:27:21;4.28;;;2.40;;
64633;SDS011;51043;52.406;9.690;2022-08-16T14:29:51;5.65;;;2.60;;
64633;SDS011;51043;52.406;9.690;2022-08-16T14:32:20;8.85;;;2.78;;
64633;SDS011;51043;52.406;9.690;2022-08-16T14:34:51;7.10;;;2.60;;
64633;SDS011;51043;52.406;9.690;2022-08-16T14:37:18;8.32;;;2.58;;
64633;SDS011;51043;52.406;9.690;2022-08-16T14:39:51;5.43;;;2.50;;
64633;SDS011;51043;52.406;9.690;2022-08-16T14:42:19;4.13;;;3.00;;
64633;SDS011;51043;52.406;9.690;2022-08-16T14:44:51;7.75;;;2.72;;
64633;SDS011;51043;52.406;9.690;2022-08-16T14:47:18;7.03;;;2.47;;
64633;SDS011;51043;52.406;9.690;2022-08-16T14:49:46;8.95;;;2.90;;
64633;SDS011;51043;52.406;9.690;2022-08-16T14:52:15;4.18;;;2.70;;
64633;SDS011;51043;52.406;9.690;2022-08-16T14:54:46;3.85;;;2.53;;
64633;SDS011;51043;52.406;9.690;2022-08-16T14:57:15;6.35;;;2.80;;
64633;SDS011;51043;52.406;9.690;2022-08-16T15:00:04;4.53;;;2.72;;
64633;SDS011;51043;52.406;9.690;2022-08-16T15:02:34;6.45;;;2.88;;
64633;SDS011;51043;52.406;9.690;2022-08-16T15:05:02;7.03;;;2.58;;